Time;durP1;ratioP1;P1;durP2;ratioP2;P2;SDS_P1;SDS_P2;PMS_P1;PMS_P2;Temp;Humidity;BMP_temperature;BMP_pressure;BME280_temperature;BME280_humidity;BME280_pressure;Samples;Min_cycle;Max_cycle;Signal;HPM_P1;HPM_P2
2022/07/12 00:01:03;;;;;;;20.13;13.73;;;;;;;13.10;98.73;102318.72;5052858;28;20504;-41
2022/07/12 00:03:28;;;;;;;22.23;15.15;;;;;;;13.11;99.44;102317.91;5053532;28;20460;-44
2022/07/12 00:05:54;;;;;;;21.95;17.13;;;;;;;13.20;100.00;102322.59;5053441;28;20025;-45
2022/07/12 00:08:19;;;;;;;23.95;16.40;;;;;;;13.20;100.00;102313.97;5052935;28;20033;-45
2022/07/12 00:10:44;;;;;;;20.02;14.77;;;;;;;13.21;100.00;102302.75;5053051;28;20029;-41
2022/07/12 00:13:10;;;;;;;20.13;14.38;;;;;;;13.20;100.00;102303.59;5052979;28;20033;-42
2022/07/12 00:15:36;;;;;;;22.17;16.25;;;;;;;13.26;100.00;102306.44;5053641;28;20095;-46
2022/07/12 00:18:01;;;;;;;27.13;19.05;;;;;;;13.34;100.00;102305.06;5053086;28;20028;-42
2022/07/12 00:20:27;;;;;;;27.42;17.00;;;;;;;13.32;100.00;102305.00;5052985;28;20104;-45
2022/07/12 00:22:52;;;;;;;17.85;12.20;;;;;;;13.24;100.00;102300.31;5052908;28;20029;-43
2022/07/12 00:25:17;;;;;;;16.98;11.75;;;;;;;13.15;99.03;102299.09;5053121;28;20032;-47
2022/07/12 00:27:42;;;;;;;17.25;11.02;;;;;;;13.09;98.53;102296.28;5052786;28;20028;-47
2022/07/12 00:30:08;;;;;;;18.02;12.80;;;;;;;13.11;99.54;102299.78;5053044;28;20468;-46
2022/07/12 00:32:34;;;;;;;14.57;11.20;;;;;;;13.03;98.72;102308.94;5053214;28;20033;-45
2022/07/12 00:34:59;;;;;;;18.48;11.93;;;;;;;13.01;98.41;102310.56;5052578;28;20017;-46
2022/07/12 00:37:24;;;;;;;16.83;11.50;;;;;;;12.98;98.19;102302.69;5052617;28;20632;-47
2022/07/12 00:39:50;;;;;;;19.63;11.75;;;;;;;12.94;98.05;102298.22;5052780;28;20029;-45
2022/07/12 00:42:16;;;;;;;19.77;14.65;;;;;;;12.95;99.98;102299.94;5052095;28;20029;-43
2022/07/12 00:44:41;;;;;;;20.30;14.40;;;;;;;12.96;99.99;102291.38;5052756;28;20187;-42
2022/07/12 00:47:06;;;;;;;32.92;18.25;;;;;;;13.02;100.00;102291.63;5052741;28;20464;-45
2022/07/12 00:49:32;;;;;;;23.20;16.65;;;;;;;13.01;100.00;102295.03;5052366;28;20047;-44
2022/07/12 00:52:01;;;;;;;21.27;14.07;;;;;;;12.96;99.75;102294.88;5052633;28;20028;-45
2022/07/12 00:54:26;;;;;;;18.33;12.88;;;;;;;12.92;98.83;102289.47;5052702;28;20021;-45
2022/07/12 00:56:51;;;;;;;16.63;12.10;;;;;;;12.89;98.59;102294.53;5051711;28;20135;-44
2022/07/12 00:59:17;;;;;;;18.48;12.20;;;;;;;12.82;98.55;102296.84;5052196;28;20460;-42
2022/07/12 01:01:42;;;;;;;17.13;12.23;;;;;;;12.73;98.36;102292.97;5052025;28;20025;-42
2022/07/12 01:04:08;;;;;;;21.05;16.02;;;;;;;12.71;100.00;102297.19;5051914;28;20025;-42
2022/07/12 01:06:35;;;;;;;21.50;15.23;;;;;;;12.68;100.00;102296.22;5052414;28;20033;-42
2022/07/12 01:09:01;;;;;;;15.60;12.63;;;;;;;12.57;98.67;102301.75;5052449;28;20037;-42
2022/07/12 01:11:27;;;;;;;22.40;15.55;;;;;;;12.51;99.28;102303.25;5052115;28;20025;-42
2022/07/12 01:13:52;;;;;;;19.25;14.55;;;;;;;12.45;99.40;102294.34;5052361;28;20028;-44
2022/07/12 01:16:19;;;;;;;22.70;17.27;;;;;;;12.46;100.00;102299.56;5051979;28;20021;-46
2022/07/12 01:18:45;;;;;;;29.13;17.30;;;;;;;12.46;100.00;102306.41;5052495;28;20037;-43
2022/07/12 01:21:15;;;;;;;25.60;15.98;;;;;;;12.39;100.00;102301.81;5052121;28;20029;-42
2022/07/12 01:23:41;;;;;;;24.35;16.27;;;;;;;12.37;100.00;102304.31;5051800;28;20025;-42
2022/07/12 01:26:07;;;;;;;19.80;14.88;;;;;;;12.34;100.00;102309.34;5052239;28;20028;-42
2022/07/12 01:28:32;;;;;;;21.38;13.90;;;;;;;12.30;100.00;102322.94;5052519;28;20033;-43
2022/07/12 01:30:58;;;;;;;20.90;14.38;;;;;;;12.22;100.00;102319.13;5051583;28;20021;-43
2022/07/12 01:33:24;;;;;;;21.88;14.35;;;;;;;12.14;100.00;102323.94;5052064;28;20032;-42
2022/07/12 01:35:50;;;;;;;19.98;13.93;;;;;;;12.10;100.00;102327.19;5052244;28;20086;-45
2022/07/12 01:38:16;;;;;;;16.05;12.77;;;;;;;12.02;100.00;102324.25;5051488;28;20471;-41
2022/07/12 01:40:41;;;;;;;19.48;14.13;;;;;;;12.01;100.00;102325.94;5052336;28;20028;-42
2022/07/12 01:43:06;;;;;;;19.52;15.15;;;;;;;11.97;100.00;102318.84;5052295;28;20025;-42
2022/07/12 01:45:31;;;;;;;17.73;13.07;;;;;;;11.90;100.00;102321.91;5051733;28;20024;-44
2022/07/12 01:48:00;;;;;;;24.10;14.65;;;;;;;11.83;100.00;102320.75;5052042;28;20068;-45
2022/07/12 01:50:26;;;;;;;21.70;15.57;;;;;;;11.78;99.81;102321.34;5052073;28;20162;-44
2022/07/12 01:52:52;;;;;;;25.08;16.30;;;;;;;11.69;99.51;102316.63;5051530;28;20104;-44
2022/07/12 01:55:18;;;;;;;23.00;16.52;;;;;;;11.65;99.94;102325.03;5051954;28;20124;-42
2022/07/12 01:57:44;;;;;;;24.15;15.52;;;;;;;11.65;100.00;102325.03;5051868;28;20044;-44
2022/07/12 02:00:11;;;;;;;21.98;15.25;;;;;;;11.63;100.00;102318.88;5051462;28;20078;-42
2022/07/12 02:02:37;;;;;;;20.20;14.50;;;;;;;11.60;99.83;102318.75;5051986;28;20044;-42
2022/07/12 02:05:04;;;;;;;17.85;14.07;;;;;;;11.58;100.00;102310.94;5051997;28;20276;-46
2022/07/12 02:07:30;;;;;;;17.05;13.48;;;;;;;11.59;100.00;102309.22;5051412;28;20025;-45
2022/07/12 02:09:55;;;;;;;21.92;16.33;;;;;;;11.62;100.00;102310.28;5051875;28;20021;-45
2022/07/12 02:12:20;;;;;;;19.52;14.35;;;;;;;11.62;100.00;102309.38;5053173;28;20396;-45
2022/07/12 02:14:46;;;;;;;26.00;17.10;;;;;;;11.65;100.00;102314.69;5055298;28;20113;-45
2022/07/12 02:17:11;;;;;;;21.40;15.13;;;;;;;11.65;100.00;102304.38;5055263;28;20103;-43
2022/07/12 02:19:36;;;;;;;23.35;15.18;;;;;;;11.62;100.00;102305.09;5055053;28;20468;-44
2022/07/12 02:22:02;;;;;;;20.58;15.45;;;;;;;11.62;100.00;102301.63;5055296;28;20021;-45
2022/07/12 02:24:27;;;;;;;23.48;16.83;;;;;;;11.61;100.00;102300.75;5055239;28;20056;-46
2022/07/12 02:26:52;;;;;;;15.88;11.57;;;;;;;11.50;100.00;102305.41;5054979;28;20052;-47
2022/07/12 02:29:18;;;;;;;17.27;12.93;;;;;;;11.46;99.70;102303.44;5055328;28;20025;-44
2022/07/12 02:31:43;;;;;;;15.68;12.60;;;;;;;11.39;99.22;102306.56;5055316;28;20063;-43
2022/07/12 02:34:08;;;;;;;15.02;11.85;;;;;;;11.36;99.15;102311.53;5054694;28;20025;-42
2022/07/12 02:36:33;;;;;;;18.02;13.48;;;;;;;11.39;100.00;102306.56;5055140;28;20029;-43
2022/07/12 02:39:03;;;;;;;29.15;20.10;;;;;;;11.51;100.00;102307.16;5055391;28;20029;-42
2022/07/12 02:41:30;;;;;;;30.10;20.60;;;;;;;11.59;100.00;102304.94;5054848;28;20025;-41
2022/07/12 02:43:55;;;;;;;33.88;22.10;;;;;;;11.67;100.00;102302.72;5055002;28;20036;-42
2022/07/12 02:46:21;;;;;;;28.40;18.77;;;;;;;11.64;100.00;102307.75;5055023;28;20033;-44
2022/07/12 02:48:46;;;;;;;21.85;16.20;;;;;;;11.61;100.00;102307.63;5054458;28;20079;-43
2022/07/12 02:51:11;;;;;;;19.48;14.23;;;;;;;11.55;100.00;102312.47;5054503;28;20075;-43
2022/07/12 02:53:37;;;;;;;22.73;13.95;;;;;;;11.49;100.00;102308.78;5055174;28;20354;-43
2022/07/12 02:56:03;;;;;;;22.20;13.18;;;;;;;11.49;100.00;102306.19;5054173;28;20025;-43
2022/07/12 02:58:28;;;;;;;19.70;14.55;;;;;;;11.48;100.00;102314.75;5054619;28;20422;-44
2022/07/12 03:00:55;;;;;;;22.30;15.30;;;;;;;11.47;100.00;102312.97;5054687;28;20041;-42
2022/07/12 03:03:20;;;;;;;23.95;15.82;;;;;;;11.44;100.00;102310.25;5054230;28;20107;-42
2022/07/12 03:05:46;;;;;;;21.90;16.38;;;;;;;11.41;100.00;102315.25;5054396;28;20437;-45
2022/07/12 03:08:12;;;;;;;20.35;15.23;;;;;;;11.36;100.00;102311.53;5054644;28;20491;-42
2022/07/12 03:10:38;;;;;;;22.27;16.92;;;;;;;11.33;100.00;102311.41;5054361;28;20029;-42
2022/07/12 03:13:04;;;;;;;20.13;15.23;;;;;;;11.30;100.00;102306.09;5054254;28;20028;-43
2022/07/12 03:15:30;;;;;;;26.02;16.30;;;;;;;11.35;100.00;102310.69;5054569;28;20025;-42
2022/07/12 03:17:56;;;;;;;25.33;17.92;;;;;;;11.38;100.00;102315.09;5053827;28;20029;-43
2022/07/12 03:20:21;;;;;;;26.00;17.20;;;;;;;11.41;100.00;102304.91;5053997;28;20033;-42
2022/07/12 03:22:48;;;;;;;24.35;16.65;;;;;;;11.47;100.00;102312.09;5054454;28;20032;-42
2022/07/12 03:25:14;;;;;;;22.67;14.75;;;;;;;11.39;100.00;102309.13;5053298;28;20070;-42
2022/07/12 03:27:40;;;;;;;22.77;15.02;;;;;;;11.31;100.00;102306.19;5054258;28;20116;-43
2022/07/12 03:30:07;;;;;;;23.48;14.63;;;;;;;11.24;100.00;102305.78;5053428;28;20074;-46
2022/07/12 03:32:32;;;;;;;20.75;15.73;;;;;;;11.15;100.00;102311.38;5053933;28;20025;-42
2022/07/12 03:34:58;;;;;;;19.85;14.65;;;;;;;11.11;100.00;102306.88;5054118;28;20021;-43
2022/07/12 03:37:23;;;;;;;23.98;16.00;;;;;;;11.08;100.00;102305.00;5053755;28;20025;-43
2022/07/12 03:39:48;;;;;;;22.80;15.77;;;;;;;11.09;100.00;102305.88;5053659;28;20040;-44
2022/07/12 03:42:14;;;;;;;22.73;15.40;;;;;;;11.12;100.00;102306.94;5053940;28;20182;-44
2022/07/12 03:44:39;;;;;;;28.13;19.77;;;;;;;11.22;100.00;102307.41;5053605;28;20028;-45
2022/07/12 03:47:04;;;;;;;24.80;17.75;;;;;;;11.21;100.00;102311.69;5053638;28;20103;-43
2022/07/12 03:49:30;;;;;;;21.10;15.27;;;;;;;11.15;100.00;102308.78;5053972;28;20376;-46
2022/07/12 03:51:55;;;;;;;18.05;13.73;;;;;;;11.15;100.00;102308.78;5053433;28;20033;-47
2022/07/12 03:54:20;;;;;;;19.95;13.75;;;;;;;11.15;100.00;102307.06;5053641;28;20029;-43
2022/07/12 03:59:29;;;;;;;24.67;17.58;;;;;;;11.28;100.00;102312.88;5053460;28;20039;-46
2022/07/12 04:01:54;;;;;;;26.30;16.35;;;;;;;11.28;100.00;102312.88;5053266;28;20391;-46
2022/07/12 04:04:20;;;;;;;21.38;14.73;;;;;;;11.23;100.00;102314.34;5053460;28;20033;-44
2022/07/12 04:06:46;;;;;;;19.55;13.45;;;;;;;11.23;100.00;102298.84;5053317;28;20456;-43
2022/07/12 04:09:11;;;;;;;25.80;16.95;;;;;;;11.24;100.00;102296.34;5053399;28;20059;-42
2022/07/12 04:11:36;;;;;;;33.92;21.58;;;;;;;11.38;100.00;102301.31;5053686;28;20056;-46
2022/07/12 04:14:02;;;;;;;39.85;25.08;;;;;;;11.47;100.00;102304.34;5052717;28;20029;-44
2022/07/12 04:16:29;;;;;;;25.85;17.83;;;;;;;11.43;100.00;102303.31;5053166;28;20025;-45
2022/07/12 04:18:55;;;;;;;29.38;17.88;;;;;;;11.47;100.00;102307.81;5053247;28;20060;-43
2022/07/12 04:21:20;;;;;;;26.75;18.27;;;;;;;11.46;100.00;102311.19;5052685;28;20059;-43
2022/07/12 04:23:45;;;;;;;31.48;20.33;;;;;;;11.45;100.00;102305.97;5053174;28;20029;-42
2022/07/12 04:26:11;;;;;;;40.67;22.30;;;;;;;11.47;100.00;102315.56;5053059;28;20043;-43
2022/07/12 04:28:36;;;;;;;29.60;20.25;;;;;;;11.47;100.00;102315.56;5052904;28;20037;-45
2022/07/12 04:31:02;;;;;;;35.45;20.85;;;;;;;11.44;100.00;102318.00;5052976;28;20468;-43
2022/07/12 04:33:27;;;;;;;31.80;21.67;;;;;;;11.42;100.00;102319.59;5052914;28;20033;-42
2022/07/12 04:35:52;;;;;;;32.40;22.67;;;;;;;11.42;100.00;102327.34;5052057;28;20025;-45
2022/07/12 04:38:18;;;;;;;33.92;22.67;;;;;;;11.40;100.00;102334.16;5053046;28;20025;-44
2022/07/12 04:40:43;;;;;;;34.28;22.23;;;;;;;11.41;100.00;102333.31;5052511;28;20025;-42
2022/07/12 04:43:08;;;;;;;37.38;23.48;;;;;;;11.42;100.00;102332.50;5052474;28;20032;-42
2022/07/12 04:45:33;;;;;;;34.05;22.00;;;;;;;11.44;100.00;102330.91;5052856;28;20252;-43
2022/07/12 04:47:59;;;;;;;39.40;26.80;;;;;;;11.52;100.00;102323.53;5052277;28;20052;-43
2022/07/12 04:50:24;;;;;;;39.65;26.70;;;;;;;11.55;100.00;102321.09;5052341;28;20373;-44
2022/07/12 04:52:50;;;;;;;43.47;29.30;;;;;;;11.64;100.00;102318.09;5052777;28;20033;-43
2022/07/12 04:55:15;;;;;;;51.55;31.90;;;;;;;11.73;100.00;102318.53;5052134;28;20028;-44
2022/07/12 04:57:40;;;;;;;55.47;33.72;;;;;;;11.84;100.00;102329.41;5052239;28;20048;-43
2022/07/12 05:00:07;;;;;;;51.72;32.60;;;;;;;11.92;100.00;102322.00;5052431;28;20036;-47
2022/07/12 05:02:32;;;;;;;54.50;32.53;;;;;;;12.00;100.00;102319.00;5052240;28;20041;-42
2022/07/12 05:04:58;;;;;;;55.53;35.50;;;;;;;12.15;100.00;102320.56;5052585;28;20036;-42
2022/07/12 05:07:23;;;;;;;63.22;39.90;;;;;;;12.25;100.00;102321.84;5052559;28;20028;-44
2022/07/12 05:09:48;;;;;;;71.40;42.90;;;;;;;12.36;100.00;102331.00;5052051;28;20052;-42
2022/07/12 05:12:14;;;;;;;74.68;44.67;;;;;;;12.50;100.00;102329.91;5052347;28;20037;-42
2022/07/12 05:14:39;;;;;;;87.72;50.83;;;;;;;12.67;100.00;102334.97;5052712;28;20024;-46
2022/07/12 05:17:04;;;;;;;107.00;59.72;;;;;;;12.80;100.00;102336.41;5051537;28;20108;-43
2022/07/12 05:19:29;;;;;;;110.13;62.53;;;;;;;12.93;100.00;102338.69;5052406;28;20021;-43
2022/07/12 05:21:55;;;;;;;109.57;63.50;;;;;;;13.03;100.00;102334.81;5052347;28;20024;-43
2022/07/12 05:24:20;;;;;;;111.13;65.30;;;;;;;13.18;100.00;102345.84;5051858;28;20596;-43
2022/07/12 05:26:45;;;;;;;118.75;67.10;;;;;;;13.30;100.00;102349.78;5052159;28;20033;-42
2022/07/12 05:29:10;;;;;;;111.97;66.57;;;;;;;13.40;100.00;102349.38;5052306;28;20505;-45
2022/07/12 05:31:36;;;;;;;113.75;65.40;;;;;;;13.49;100.00;102352.34;5051570;28;20087;-45
2022/07/12 05:34:01;;;;;;;125.07;66.57;;;;;;;13.60;100.00;102354.50;5052410;28;20472;-43
2022/07/12 05:36:27;;;;;;;117.32;66.70;;;;;;;13.69;100.00;102364.38;5052599;28;20032;-44
2022/07/12 05:38:52;;;;;;;112.93;66.30;;;;;;;13.78;100.00;102365.63;5051386;28;20024;-45
2022/07/12 05:41:18;;;;;;;102.97;59.78;;;;;;;13.88;100.00;102361.69;5052217;28;20456;-43
2022/07/12 05:43:43;;;;;;;101.05;61.67;;;;;;;14.02;100.00;102364.84;5051548;28;20033;-44
2022/07/12 05:46:09;;;;;;;92.90;55.92;;;;;;;14.15;100.00;102372.28;5051725;28;20028;-42
2022/07/12 05:48:35;;;;;;;82.55;52.70;;;;;;;14.37;100.00;102369.63;5055272;28;20017;-43
2022/07/12 05:53:21;;;;;;;83.72;49.63;;;;;;;14.57;100.00;102380.75;5055686;28;20036;-43
2022/07/12 05:53:45;;;;;;;73.32;47.63;;;;;;;14.77;100.00;102397.09;5055839;28;20040;-43
2022/07/12 05:56:11;;;;;;;78.53;48.25;;;;;;;14.93;100.00;102391.66;5055701;28;20035;-43
2022/07/12 05:58:36;;;;;;;73.55;48.15;;;;;;;15.07;100.00;102394.75;5055442;28;20021;-44
2022/07/12 06:01:01;;;;;;;68.88;47.35;;;;;;;15.17;100.00;102395.97;5055758;28;20044;-44
2022/07/12 06:03:27;;;;;;;67.07;45.30;;;;;;;15.34;100.00;102399.16;5056249;28;20029;-43
2022/07/12 06:05:52;;;;;;;60.10;43.65;;;;;;;15.44;100.00;102397.75;5055413;28;20041;-45
2022/07/12 06:08:17;;;;;;;66.38;47.60;;;;;;;15.47;100.00;102396.13;5055565;28;20029;-43
2022/07/12 06:10:42;;;;;;;65.68;44.65;;;;;;;15.57;100.00;102399.03;5055748;28;20032;-43
2022/07/12 06:13:09;;;;;;;63.05;46.03;;;;;;;15.67;100.00;102401.13;5055069;28;20087;-45
2022/07/12 06:15:35;;;;;;;67.85;46.40;;;;;;;15.77;100.00;102399.72;5055603;28;20029;-43
2022/07/12 06:18:03;;;;;;;58.45;41.90;;;;;;;15.83;100.00;102405.16;5055780;28;20025;-43
2022/07/12 06:20:29;;;;;;;61.35;43.78;;;;;;;15.96;100.00;102402.13;5055019;28;20025;-46
2022/07/12 06:22:54;;;;;;;67.80;46.75;;;;;;;16.11;100.00;102406.94;5055429;28;20091;-43
2022/07/12 06:25:20;;;;;;;83.88;54.38;;;;;;;16.27;100.00;102407.41;5055349;28;20017;-44
2022/07/12 06:27:46;;;;;;;72.53;49.15;;;;;;;16.38;100.00;102406.00;5054608;28;20021;-48
2022/07/12 06:30:11;;;;;;;64.82;46.20;;;;;;;16.52;100.00;102400.34;5055408;28;20472;-45
2022/07/12 06:32:37;;;;;;;65.15;45.35;;;;;;;16.62;100.00;102400.66;5055747;28;20029;-43
2022/07/12 06:35:02;;;;;;;64.13;44.78;;;;;;;16.73;99.92;102403.59;5054597;28;20029;-46
2022/07/12 06:37:27;;;;;;;62.25;45.08;;;;;;;16.85;98.37;102389.16;5055323;28;20047;-45
2022/07/12 06:39:53;;;;;;;63.20;42.97;;;;;;;16.99;97.73;102393.06;5054756;28;20025;-43
2022/07/12 06:42:18;;;;;;;61.38;41.88;;;;;;;17.14;97.97;102396.94;5054859;28;20031;-46
2022/07/12 06:44:43;;;;;;;62.75;44.22;;;;;;;17.24;99.09;102407.63;5055357;28;20032;-43
2022/07/12 06:47:10;;;;;;;64.65;42.10;;;;;;;17.38;96.32;102399.31;5054505;28;20029;-46
2022/07/12 06:49:35;;;;;;;60.45;41.65;;;;;;;17.50;93.88;102406.56;5054971;28;20036;-43
2022/07/12 06:52:00;;;;;;;59.45;42.70;;;;;;;17.64;92.84;102391.25;5055180;28;20028;-45
2022/07/12 06:54:26;;;;;;;59.90;43.75;;;;;;;17.76;91.05;102394.19;5054401;28;20036;-44
2022/07/12 06:56:51;;;;;;;57.30;42.65;;;;;;;17.90;91.07;102404.97;5054410;28;20125;-48
2022/07/12 06:59:16;;;;;;;59.17;43.42;;;;;;;18.06;91.23;102399.31;5053635;28;20467;-46
2022/07/12 07:01:49;;;;;;;61.72;43.58;;;;;;;18.16;90.79;102391.69;5054119;28;20094;-44
2022/07/12 07:04:14;;;;;;;59.88;42.97;;;;;;;18.32;89.53;102388.56;5054510;28;20031;-45
2022/07/12 07:06:40;;;;;;;51.13;37.42;;;;;;;18.47;88.88;102402.81;5054974;28;20013;-44
2022/07/12 07:09:07;;;;;;;53.45;37.50;;;;;;;18.67;86.92;102404.13;5053957;28;20025;-45
2022/07/12 07:11:33;;;;;;;47.08;33.90;;;;;;;18.81;85.24;102403.50;5054432;28;20025;-47
2022/07/12 07:13:58;;;;;;;41.78;26.15;;;;;;;18.90;82.53;102399.38;5054887;28;20025;-43
2022/07/12 07:16:24;;;;;;;39.40;25.90;;;;;;;19.02;81.44;102403.97;5053751;28;20074;-46
2022/07/12 07:18:49;;;;;;;33.53;24.58;;;;;;;19.10;80.13;102406.72;5054347;28;20049;-44
2022/07/12 07:21:15;;;;;;;36.20;23.92;;;;;;;19.23;79.90;102407.84;5054544;28;20057;-43
2022/07/12 07:23:40;;;;;;;32.90;23.98;;;;;;;19.45;80.20;102403.00;5053905;28;20024;-43
2022/07/12 07:26:06;;;;;;;39.53;25.55;;;;;;;19.59;79.44;102401.50;5053817;28;20025;-43
2022/07/12 07:28:31;;;;;;;35.10;24.30;;;;;;;19.74;78.78;102400.88;5054419;28;20029;-44
2022/07/12 07:30:57;;;;;;;36.35;27.27;;;;;;;19.91;77.45;102403.81;5053300;28;20029;-45
2022/07/12 07:33:24;;;;;;;36.97;27.13;;;;;;;20.04;77.26;102405.75;5054258;28;20033;-45
2022/07/12 07:35:51;;;;;;;31.60;24.23;;;;;;;20.27;77.33;102401.69;5054059;28;20452;-44
2022/07/12 07:38:18;;;;;;;34.13;25.03;;;;;;;20.31;75.43;102399.16;5053291;28;20330;-42
2022/07/12 07:40:43;;;;;;;34.10;22.48;;;;;;;20.39;75.70;102392.28;5053893;28;20332;-42
2022/07/12 07:43:08;;;;;;;29.92;20.98;;;;;;;20.44;75.40;102394.06;5053533;28;20434;-45
2022/07/12 07:45:34;;;;;;;23.17;16.05;;;;;;;20.45;73.55;102395.84;5054011;28;20021;-42
2022/07/12 07:47:59;;;;;;;21.48;14.73;;;;;;;20.50;73.89;102391.53;5053803;28;20087;-43
2022/07/12 07:50:24;;;;;;;22.95;15.93;;;;;;;20.61;72.39;102397.81;5053156;28;20541;-47
2022/07/12 07:52:51;;;;;;;21.63;14.77;;;;;;;20.64;71.66;102394.34;5053634;28;20065;-47
2022/07/12 07:55:16;;;;;;;26.20;15.43;;;;;;;20.59;71.09;102391.66;5053582;28;20361;-47
2022/07/12 07:57:42;;;;;;;27.05;15.20;;;;;;;20.56;71.28;102387.25;5052825;28;20041;-43
2022/07/12 08:00:07;;;;;;;21.23;14.00;;;;;;;20.64;71.71;102395.22;5053366;28;20021;-46
2022/07/12 08:02:33;;;;;;;24.45;17.55;;;;;;;20.71;70.56;102384.00;5053793;28;20025;-48
2022/07/12 08:04:58;;;;;;;23.83;16.45;;;;;;;20.86;70.17;102387.66;5053145;28;20025;-44
2022/07/12 08:07:23;;;;;;;22.92;16.02;;;;;;;21.05;69.85;102394.84;5053392;28;20383;-45
2022/07/12 08:09:49;;;;;;;27.42;17.63;;;;;;;21.25;69.40;102391.53;5053369;28;20120;-47
2022/07/12 08:12:14;;;;;;;25.35;16.63;;;;;;;21.38;68.83;102403.03;5052778;28;20421;-45
2022/07/12 08:14:39;;;;;;;21.90;15.85;;;;;;;21.43;67.84;102392.59;5053509;28;20032;-47
2022/07/12 08:17:05;;;;;;;22.95;15.82;;;;;;;21.54;67.38;102388.31;5053517;28;20107;-45
2022/07/12 08:19:30;;;;;;;22.45;14.80;;;;;;;21.81;67.97;102392.06;5052964;28;20029;-44
2022/07/12 08:21:56;;;;;;;20.45;13.90;;;;;;;22.06;66.42;102392.22;5053222;28;20491;-45
2022/07/12 08:24:21;;;;;;;21.42;14.70;;;;;;;22.21;65.92;102394.94;5053243;28;20025;-46
2022/07/12 08:26:46;;;;;;;21.05;15.38;;;;;;;22.25;63.65;102396.72;5052556;28;20025;-47
2022/07/12 08:29:12;;;;;;;22.55;15.68;;;;;;;22.25;63.65;102391.47;5053102;28;20025;-45
2022/07/12 08:31:37;;;;;;;19.40;14.27;;;;;;;22.36;63.75;102396.81;5053405;28;20516;-44
2022/07/12 08:34:02;;;;;;;19.17;12.80;;;;;;;22.55;63.38;102399.53;5052205;28;20029;-44
2022/07/12 08:36:27;;;;;;;21.05;13.13;;;;;;;22.65;64.44;102404.81;5053119;28;20083;-45
2022/07/12 08:40:00;;;;;;;18.25;12.85;;;;;;;22.78;61.81;102407.50;5069668;28;20746;-47
2022/07/12 08:42:25;;;;;;;18.65;12.73;;;;;;;22.73;61.38;102406.63;5069660;28;20488;-46
2022/07/12 08:44:57;;;;;;;18.13;12.30;;;;;;;22.69;62.09;102406.59;5070028;28;20024;-47
2022/07/12 08:47:22;;;;;;;22.52;15.13;;;;;;;22.60;60.60;102408.31;5069291;28;20352;-47
2022/07/12 08:50:19;;;;;;;21.30;12.65;;;;;;;22.71;63.47;102406.63;5069798;28;20464;-47
2022/07/12 08:52:47;;;;;;;17.08;12.57;;;;;;;22.72;61.19;102413.59;5069904;28;20106;-48
2022/07/12 08:55:17;;;;;;;16.58;11.70;;;;;;;22.77;60.77;102414.50;5068848;28;20025;-46
2022/07/12 08:57:43;;;;;;;18.50;12.43;;;;;;;22.82;59.62;102412.75;5069574;28;20060;-45
2022/07/12 09:00:09;;;;;;;17.50;11.32;;;;;;;22.86;60.15;102418.91;5069797;28;20055;-45
2022/07/12 09:02:55;;;;;;;24.23;10.93;;;;;;;22.96;62.65;102425.97;5068788;28;20494;-48
2022/07/12 09:05:29;;;;;;;20.23;11.35;;;;;;;22.95;59.88;102413.69;5069571;28;20031;-47
2022/07/12 09:08:05;;;;;;;17.58;12.52;;;;;;;22.83;59.22;102416.28;5069067;28;20020;-45
2022/07/12 09:10:31;;;;;;;20.75;11.65;;;;;;;22.68;59.05;102409.22;5069228;28;20024;-47
2022/07/12 09:12:57;;;;;;;15.35;10.93;;;;;;;22.77;59.29;102418.88;5069376;28;20430;-47
2022/07/12 09:15:23;;;;;;;18.65;11.90;;;;;;;22.89;58.67;102411.03;5068772;28;20539;-47
2022/07/12 09:17:59;;;;;;;16.65;11.90;;;;;;;22.93;58.64;102418.06;5069114;28;20039;-43
2022/07/12 09:20:34;;;;;;;19.60;12.18;;;;;;;22.90;58.94;102410.16;5069039;28;20388;-43
2022/07/12 09:23:04;;;;;;;14.95;10.38;;;;;;;23.00;59.97;102405.81;5068734;28;20035;-46
2022/07/12 09:25:33;;;;;;;14.10;9.15;;;;;;;23.22;59.92;102419.91;5069242;28;20021;-47
2022/07/12 09:28:03;;;;;;;16.58;11.55;;;;;;;23.14;57.80;102400.59;5068974;28;20391;-47
2022/07/12 09:30:30;;;;;;;15.55;11.10;;;;;;;23.30;58.78;102410.28;5068372;28;20029;-48
2022/07/12 09:36:15;;;;;;;16.10;11.48;;;;;;;24.02;57.98;102394.53;5068661;28;20090;-48
2022/07/12 09:38:54;;;;;;;14.57;9.85;;;;;;;24.31;57.18;102403.22;5068667;28;20055;-48
2022/07/12 09:41:23;;;;;;;18.33;11.43;;;;;;;24.23;55.01;102404.97;5068718;28;20534;-47
2022/07/12 09:43:49;;;;;;;31.63;11.70;;;;;;;24.15;55.04;102399.72;5068035;28;20443;-45
2022/07/12 09:46:16;;;;;;;16.00;10.43;;;;;;;24.33;55.68;102403.22;5068537;28;20021;-46
2022/07/12 09:48:42;;;;;;;12.90;9.70;;;;;;;24.37;54.06;102411.97;5068854;28;20024;-44
2022/07/12 09:51:14;;;;;;;18.30;10.43;;;;;;;24.17;53.98;102399.75;5056542;28;20048;-46
2022/07/12 09:53:44;;;;;;;14.90;10.55;;;;;;;24.20;55.45;102406.78;5055514;28;20025;-45
2022/07/12 09:56:11;;;;;;;14.18;10.77;;;;;;;24.30;55.15;102400.59;5055124;28;20534;-48
2022/07/12 09:58:51;;;;;;;17.70;10.52;;;;;;;24.42;54.25;102390.00;5054632;28;20051;-46
2022/07/12 10:01:17;;;;;;;14.35;9.60;;;;;;;24.72;55.09;102392.53;5055317;28;20025;-44
2022/07/12 10:03:43;;;;;;;16.70;10.70;;;;;;;24.61;53.66;102380.25;5055276;28;20070;-47
2022/07/12 10:06:11;;;;;;;15.13;11.13;;;;;;;24.62;54.53;102389.91;5054432;28;20027;-48
2022/07/12 10:08:36;;;;;;;14.55;10.02;;;;;;;24.97;54.83;102380.06;5055041;28;20283;-48
2022/07/12 10:11:01;;;;;;;18.58;11.90;;;;;;;25.17;53.20;102384.38;5054270;28;20033;-45
2022/07/12 10:13:27;;;;;;;13.50;8.68;;;;;;;26.14;51.94;102383.53;5054973;28;20029;-49
2022/07/12 10:15:59;;;;;;;18.25;9.93;;;;;;;26.15;51.01;102380.00;5054843;28;20384;-48
2022/07/12 10:18:24;;;;;;;14.43;8.80;;;;;;;26.15;50.00;102380.00;5054085;28;20037;-47
2022/07/12 10:20:50;;;;;;;16.00;10.20;;;;;;;26.01;50.21;102373.97;5054667;28;20473;-49
2022/07/12 10:23:35;;;;;;;13.70;9.68;;;;;;;26.04;51.99;102366.00;5054673;28;20268;-47
2022/07/12 10:26:16;;;;;;;16.33;9.18;;;;;;;26.31;51.25;102367.47;5054324;28;20025;-48
2022/07/12 10:29:05;;;;;;;13.30;7.72;;;;;;;27.34;50.03;102372.22;5054673;28;20052;-47
2022/07/12 10:31:38;;;;;;;11.82;7.25;;;;;;;28.87;45.68;102367.50;5054801;28;20036;-48
2022/07/12 10:34:10;;;;;;;11.45;7.43;;;;;;;29.47;42.89;102366.97;5053613;28;20449;-46
2022/07/12 10:36:54;;;;;;;10.57;6.57;;;;;;;29.70;42.52;102374.31;5054749;28;20064;-48
2022/07/12 10:39:20;;;;;;;9.45;5.90;;;;;;;29.64;39.90;102369.16;5053824;28;20140;-48
2022/07/12 10:42:05;;;;;;;10.15;5.43;;;;;;;30.37;42.56;102368.91;5054137;28;20192;-49
2022/07/12 10:44:35;;;;;;;9.50;6.07;;;;;;;30.45;38.29;102378.47;5054514;28;20025;-48
2022/07/12 10:47:02;;;;;;;10.80;4.97;;;;;;;30.43;37.75;102373.16;5053970;28;20112;-49
2022/07/12 10:49:29;;;;;;;7.20;4.63;;;;;;;30.40;37.90;102373.25;5054365;28;20036;-45
2022/07/12 10:52:10;;;;;;;7.00;4.50;;;;;;;31.02;38.45;102374.88;5054432;28;20070;-48
2022/07/12 10:54:54;;;;;;;7.13;3.75;;;;;;;31.19;37.01;102368.19;5053647;28;20028;-47
2022/07/12 10:57:49;;;;;;;6.70;3.53;;;;;;;31.97;39.20;102374.38;5054391;28;20028;-49
2022/07/12 11:00:15;;;;;;;9.18;4.20;;;;;;;31.72;34.74;102372.59;5053667;28;20078;-48
2022/07/12 11:02:41;;;;;;;10.70;4.60;;;;;;;31.81;34.11;102371.41;5052956;28;20411;-49
2022/07/12 11:05:08;;;;;;;10.90;4.60;;;;;;;31.69;35.34;102380.72;5054061;28;20025;-48
2022/07/12 11:07:33;;;;;;;6.45;4.22;;;;;;;32.32;33.57;102381.09;5053785;28;20033;-50
2022/07/12 11:09:59;;;;;;;8.57;3.93;;;;;;;32.96;33.15;102378.63;5053825;28;20032;-49
2022/07/12 11:12:31;;;;;;;8.37;3.80;;;;;;;33.28;32.18;102381.78;5054074;28;20031;-49